Time;durP1;ratioP1;P1;durP2;ratioP2;P2;SDS_P1;SDS_P2;PMS_P1;PMS_P2;Temp;Humidity;BMP_temperature;BMP_pressure;BME280_temperature;BME280_humidity;BME280_pressure;Samples;Min_cycle;Max_cycle;Signal;HPM_P1;HPM_P2
2023/08/12 00:01:46;;;;;;;3.90;2.25;;;;;;;22.12;78.22;101647.63;6133457;28;20231;-68
2023/08/12 00:05:10;;;;;;;2.95;2.50;;;;;;;22.20;77.90;101648.38;6121150;28;20547;-67
2023/08/12 00:08:32;;;;;;;2.47;2.28;;;;;;;22.08;78.50;101632.56;6105758;28;20247;-67
2023/08/12 00:11:52;;;;;;;2.38;1.77;;;;;;;21.79;78.23;101638.06;6139976;28;20334;-68
2023/08/12 00:15:13;;;;;;;1.60;1.50;;;;;;;21.75;79.05;101645.84;6139247;28;20234;-67
2023/08/12 00:18:36;;;;;;;2.50;2.30;;;;;;;21.57;79.49;101650.84;6119923;28;20243;-68
2023/08/12 00:21:58;;;;;;;2.53;2.03;;;;;;;21.55;79.93;101644.69;6138715;28;20228;-68
2023/08/12 00:25:19;;;;;;;4.68;2.47;;;;;;;21.64;80.05;101637.22;6126301;28;20224;-68
2023/08/12 00:28:40;;;;;;;2.28;1.83;;;;;;;21.81;79.80;101639.59;6121125;28;20243;-67
2023/08/12 00:32:01;;;;;;;2.55;1.95;;;;;;;21.63;79.65;101632.78;6132386;28;20244;-67
2023/08/12 00:35:22;;;;;;;2.30;2.10;;;;;;;21.73;79.59;101623.22;6128269;28;20231;-68
2023/08/12 00:38:44;;;;;;;2.33;2.13;;;;;;;21.73;79.31;101634.19;6120878;28;20259;-68
2023/08/12 00:42:06;;;;;;;2.17;1.98;;;;;;;21.55;79.51;101630.13;6137772;28;20361;-68
2023/08/12 00:45:26;;;;;;;3.63;1.83;;;;;;;21.65;79.75;101619.72;6135467;28;20527;-67
2023/08/12 00:48:48;;;;;;;5.65;2.08;;;;;;;21.50;80.00;101625.22;6114030;28;20516;-67
2023/08/12 00:52:09;;;;;;;2.15;1.95;;;;;;;21.79;79.98;101621.59;6127742;28;20243;-68
2023/08/12 00:55:31;;;;;;;3.20;2.15;;;;;;;21.43;80.24;101624.25;6125932;28;20227;-68
2023/08/12 00:58:53;;;;;;;3.08;2.45;;;;;;;21.60;80.40;101622.16;6124071;28;20227;-67
2023/08/12 01:02:14;;;;;;;2.05;1.85;;;;;;;21.56;80.13;101618.97;6123254;28;20235;-68
2023/08/12 01:05:35;;;;;;;5.82;2.35;;;;;;;21.37;80.78;101625.00;6121938;28;20279;-67
2023/08/12 01:08:56;;;;;;;2.03;1.83;;;;;;;21.36;80.78;101617.84;6107745;28;20232;-67
2023/08/12 01:12:25;;;;;;;2.38;2.17;;;;;;;21.42;80.99;101614.34;6134768;28;20263;-68
2023/08/12 01:15:48;;;;;;;2.78;2.17;;;;;;;21.33;80.99;101612.72;6133024;28;20231;-68
2023/08/12 01:19:20;;;;;;;6.63;2.85;;;;;;;21.43;80.62;101611.38;6125262;28;20624;-67
2023/08/12 01:22:42;;;;;;;2.50;1.95;;;;;;;21.24;80.74;101608.34;6127951;28;20231;-67
2023/08/12 01:26:04;;;;;;;4.25;2.78;;;;;;;21.26;80.95;101601.63;6128129;28;20242;-67
2023/08/12 01:29:25;;;;;;;5.38;2.20;;;;;;;21.22;81.03;101607.66;6126017;28;20254;-68
2023/08/12 01:32:54;;;;;;;5.53;2.28;;;;;;;21.14;81.39;101602.28;6129055;28;20341;-67
2023/08/12 01:36:18;;;;;;;2.40;1.70;;;;;;;21.29;81.63;101598.53;6126579;28;20561;-67
2023/08/12 01:39:40;;;;;;;2.53;1.65;;;;;;;21.10;81.62;101600.94;6123261;28;20247;-67
2023/08/12 01:43:05;;;;;;;3.45;2.45;;;;;;;21.00;82.01;101597.59;6126468;28;20230;-68
2023/08/12 01:46:27;;;;;;;2.47;1.58;;;;;;;21.28;81.75;101579.50;6125683;28;20219;-68
2023/08/12 01:49:47;;;;;;;1.95;1.80;;;;;;;21.33;81.36;101583.38;6121729;28;20231;-68
2023/08/12 01:53:08;;;;;;;2.63;2.03;;;;;;;21.28;81.13;101580.34;6125320;28;20240;-67
2023/08/12 01:56:29;;;;;;;4.03;1.75;;;;;;;21.27;81.13;101584.16;6096323;29;20239;-68
2023/08/12 01:59:52;;;;;;;3.80;2.80;;;;;;;21.41;80.68;101574.19;6119613;28;20224;-68
2023/08/12 02:03:13;;;;;;;2.65;1.92;;;;;;;21.53;80.53;101574.59;6133146;28;20243;-68
2023/08/12 02:06:33;;;;;;;6.30;1.80;;;;;;;21.38;80.39;101580.91;6124718;28;20325;-67
2023/08/12 02:09:54;;;;;;;3.22;3.03;;;;;;;21.39;80.58;101585.38;6126760;28;20231;-68
2023/08/12 02:13:15;;;;;;;2.20;2.00;;;;;;;21.18;81.02;101587.16;6138799;28;20317;-68
2023/08/12 02:16:37;;;;;;;3.50;2.42;;;;;;;21.17;81.33;101575.31;6135847;28;20235;-67
2023/08/12 02:19:58;;;;;;;2.47;1.88;;;;;;;21.34;81.45;101562.31;6129000;28;20231;-67
2023/08/12 02:23:19;;;;;;;4.45;2.10;;;;;;;21.42;81.49;101562.19;6136356;28;20231;-68
2023/08/12 02:26:40;;;;;;;3.60;2.40;;;;;;;21.39;81.43;101557.06;6124256;28;20232;-67
2023/08/12 02:30:05;;;;;;;3.15;2.22;;;;;;;21.40;81.45;101559.63;6128741;28;20329;-68
2023/08/12 02:33:28;;;;;;;3.30;2.85;;;;;;;21.07;81.68;101562.94;6127727;28;20656;-68
2023/08/12 02:36:49;;;;;;;1.80;1.60;;;;;;;21.18;81.95;101570.69;6128643;28;21018;-68
2023/08/12 02:40:11;;;;;;;4.43;2.17;;;;;;;21.04;82.27;101564.16;6131073;28;20242;-67
2023/08/12 02:43:32;;;;;;;4.18;2.38;;;;;;;21.08;82.68;101557.25;6130138;28;20239;-67
2023/08/12 02:46:53;;;;;;;2.30;2.10;;;;;;;21.00;82.85;101556.47;6130399;28;20236;-67
2023/08/12 02:50:15;;;;;;;3.88;2.20;;;;;;;20.92;83.23;101553.81;6123275;28;20242;-68
2023/08/12 02:53:36;;;;;;;2.95;1.90;;;;;;;20.87;83.97;101554.38;6139887;28;20247;-68
2023/08/12 02:56:57;;;;;;;2.55;2.20;;;;;;;21.14;83.61;101558.41;6135402;28;20326;-67
2023/08/12 03:00:18;;;;;;;2.83;2.03;;;;;;;21.26;83.12;101554.13;6107008;28;20653;-67
2023/08/12 03:03:39;;;;;;;3.72;2.47;;;;;;;21.35;82.42;101555.75;6125328;28;20235;-69
2023/08/12 03:07:02;;;;;;;1.90;1.80;;;;;;;21.37;82.14;101564.66;6129374;28;20236;-67
2023/08/12 03:10:24;;;;;;;3.33;2.20;;;;;;;21.21;82.30;101552.00;6138082;28;20226;-67
2023/08/12 03:13:45;;;;;;;4.07;2.70;;;;;;;21.29;82.29;101551.88;6124183;28;20235;-68
2023/08/12 03:17:06;;;;;;;2.30;2.13;;;;;;;21.33;82.51;101550.47;6122186;28;20302;-67
2023/08/12 03:20:28;;;;;;;2.80;2.22;;;;;;;21.24;82.37;101545.25;6128015;28;20367;-68
2023/08/12 03:23:50;;;;;;;5.03;2.40;;;;;;;21.23;82.48;101538.06;6118298;28;20235;-67
2023/08/12 03:27:10;;;;;;;3.13;2.83;;;;;;;21.20;82.68;101536.56;6122529;28;20262;-68
2023/08/12 03:30:32;;;;;;;8.00;5.88;;;;;;;21.23;82.95;101540.81;6128164;28;20230;-68
2023/08/12 03:33:53;;;;;;;2.88;2.63;;;;;;;21.28;82.90;101517.25;6120439;28;20223;-68
2023/08/12 03:37:14;;;;;;;3.42;2.88;;;;;;;21.31;82.99;101514.16;6127855;28;20235;-68
2023/08/12 03:40:40;;;;;;;3.67;2.95;;;;;;;21.23;83.06;101516.13;6120963;29;20484;-68
2023/08/12 03:44:01;;;;;;;3.38;2.35;;;;;;;21.18;83.69;101513.09;6122430;28;20231;-68
2023/08/12 03:47:24;;;;;;;4.78;3.25;;;;;;;21.13;83.65;101521.06;6145286;28;20220;-68
2023/08/12 03:50:46;;;;;;;3.00;2.70;;;;;;;21.10;83.70;101529.66;6131417;28;20226;-68
2023/08/12 03:54:08;;;;;;;5.38;2.40;;;;;;;20.67;84.08;101534.00;6119266;28;20255;-68
2023/08/12 03:57:31;;;;;;;3.65;2.50;;;;;;;20.81;84.27;101522.22;6121607;28;20232;-67
2023/08/12 04:00:52;;;;;;;3.03;1.88;;;;;;;20.84;84.14;101521.81;6122658;28;20230;-67
2023/08/12 04:04:13;;;;;;;3.90;3.05;;;;;;;20.89;84.29;101513.03;6126254;28;20307;-67
2023/08/12 04:07:34;;;;;;;3.30;2.75;;;;;;;20.86;83.99;101510.69;6131073;28;20240;-66
2023/08/12 04:10:56;;;;;;;3.38;2.67;;;;;;;20.98;83.94;101509.19;6121535;28;20617;-67
2023/08/12 04:14:18;;;;;;;3.03;2.72;;;;;;;21.07;83.70;101519.06;6117090;28;20271;-68
2023/08/12 04:17:39;;;;;;;4.03;2.63;;;;;;;20.64;84.16;101524.28;6139181;28;20616;-68
2023/08/12 04:21:01;;;;;;;4.25;3.17;;;;;;;20.81;84.34;101519.47;6123390;28;20243;-68
2023/08/12 04:24:22;;;;;;;3.92;2.72;;;;;;;20.91;84.38;101505.47;6128601;28;20231;-67
2023/08/12 04:27:42;;;;;;;3.03;2.83;;;;;;;21.03;84.20;101504.88;6142760;28;20314;-68
2023/08/12 04:31:07;;;;;;;2.80;2.42;;;;;;;21.06;84.25;101512.72;6133011;28;20259;-68
2023/08/12 04:34:28;;;;;;;5.28;4.63;;;;;;;21.04;83.79;101513.94;6125319;28;20227;-68
2023/08/12 04:37:49;;;;;;;3.22;2.95;;;;;;;21.01;84.43;101517.88;6133040;28;20522;-67
2023/08/12 04:41:10;;;;;;;5.68;2.50;;;;;;;21.00;84.66;101520.81;6132683;28;20232;-68
2023/08/12 04:44:32;;;;;;;2.28;2.13;;;;;;;20.73;84.74;101531.34;6108521;29;20228;-68
2023/08/12 04:47:54;;;;;;;2.53;2.30;;;;;;;20.77;85.34;101533.75;6118794;28;20235;-68
2023/08/12 04:51:15;;;;;;;1.98;1.85;;;;;;;20.94;85.01;101525.19;6129046;28;20313;-67
2023/08/12 04:54:36;;;;;;;3.20;3.00;;;;;;;20.99;84.50;101522.69;6110398;28;20231;-68
2023/08/12 04:57:57;;;;;;;3.17;2.88;;;;;;;21.01;84.26;101514.28;6127751;28;20231;-68
2023/08/12 05:01:18;;;;;;;2.47;2.25;;;;;;;20.84;84.67;101521.81;6106491;28;20232;-67
2023/08/12 05:04:42;;;;;;;5.03;2.50;;;;;;;20.96;84.42;101524.97;6123331;28;20589;-67
2023/08/12 05:08:05;;;;;;;2.65;2.45;;;;;;;21.03;84.06;101507.59;6117985;28;20367;-68
2023/08/12 05:11:28;;;;;;;3.30;2.75;;;;;;;21.06;83.69;101507.25;6141141;28;20231;-67
2023/08/12 05:14:50;;;;;;;2.50;2.30;;;;;;;20.99;83.69;101519.09;6122543;28;20231;-67
2023/08/12 05:18:11;;;;;;;5.18;2.88;;;;;;;21.02;83.79;101502.28;6127649;28;20239;-68
2023/08/12 05:21:33;;;;;;;6.50;3.45;;;;;;;21.11;83.88;101510.25;6131847;28;20281;-68
2023/08/12 05:24:56;;;;;;;4.20;2.90;;;;;;;21.08;83.43;101518.00;6130912;28;20230;-68
2023/08/12 05:28:17;;;;;;;7.53;2.53;;;;;;;20.42;84.87;101522.41;6134215;28;20747;-68
2023/08/12 05:31:38;;;;;;;2.95;2.75;;;;;;;20.47;85.86;101528.19;6138438;28;20235;-68
2023/08/12 05:34:59;;;;;;;2.85;2.58;;;;;;;20.38;86.13;101529.28;6125955;28;20258;-67
2023/08/12 05:38:23;;;;;;;6.65;3.40;;;;;;;20.51;87.03;101532.25;6121642;28;20232;-67
2023/08/12 05:41:43;;;;;;;2.70;2.42;;;;;;;20.83;86.34;101525.63;6137263;28;20588;-69
2023/08/12 05:45:05;;;;;;;4.35;3.03;;;;;;;20.94;86.14;101533.41;6136376;28;20574;-68
2023/08/12 05:48:26;;;;;;;2.80;2.58;;;;;;;20.89;86.21;101541.31;6137280;28;20220;-67
2023/08/12 05:51:47;;;;;;;2.70;2.50;;;;;;;20.99;86.71;101541.03;6117025;28;20243;-68
2023/08/12 05:55:09;;;;;;;7.28;3.08;;;;;;;21.08;87.08;101540.81;6121555;28;20231;-68
2023/08/12 05:58:30;;;;;;;4.35;2.90;;;;;;;21.17;87.51;101542.41;6126447;28;20314;-67
2023/08/12 06:01:51;;;;;;;4.03;3.17;;;;;;;21.32;87.54;101537.78;6116393;28;20235;-67
2023/08/12 06:05:12;;;;;;;7.88;6.63;;;;;;;21.23;88.22;101536.19;6129941;28;20239;-68
2023/08/12 06:08:32;;;;;;;9.07;4.45;;;;;;;21.21;89.55;101543.75;6121257;28;20227;-67
2023/08/12 06:11:55;;;;;;;5.93;3.28;;;;;;;21.19;90.31;101537.63;6129435;28;20224;-68
2023/08/12 06:15:16;;;;;;;5.03;4.35;;;;;;;21.21;91.07;101540.16;6115816;28;20243;-69
2023/08/12 06:18:36;;;;;;;3.60;2.92;;;;;;;20.91;91.46;101539.25;6126046;28;20325;-67
2023/08/12 06:21:57;;;;;;;4.22;3.53;;;;;;;21.07;92.17;101532.78;6117870;28;20240;-67
2023/08/12 06:25:18;;;;;;;4.47;3.92;;;;;;;21.06;92.92;101531.94;6122927;28;20234;-68
2023/08/12 06:28:41;;;;;;;3.53;3.20;;;;;;;21.09;94.10;101537.00;6105438;28;20232;-69
2023/08/12 06:32:01;;;;;;;3.33;3.08;;;;;;;21.15;94.27;101527.19;6123799;28;20235;-69
2023/08/12 06:35:22;;;;;;;4.30;3.90;;;;;;;21.20;94.82;101535.69;6136296;28;20227;-67
2023/08/12 06:38:43;;;;;;;4.07;3.47;;;;;;;21.27;94.78;101532.03;6126844;28;20239;-67
2023/08/12 06:42:04;;;;;;;5.55;3.92;;;;;;;21.25;94.88;101516.78;6125262;28;20247;-67
2023/08/12 06:45:26;;;;;;;4.30;3.90;;;;;;;21.40;94.93;101514.91;6129120;28;20230;-67
2023/08/12 06:48:47;;;;;;;4.50;4.10;;;;;;;21.42;94.87;101510.91;6126163;28;20231;-67
2023/08/12 06:52:08;;;;;;;6.20;3.53;;;;;;;21.48;94.95;101507.41;6145538;28;20240;-68
2023/08/12 06:55:29;;;;;;;7.85;3.53;;;;;;;21.52;95.22;101504.28;6134966;28;20245;-67
2023/08/12 06:58:50;;;;;;;5.40;3.85;;;;;;;21.58;95.36;101501.59;6118166;28;20227;-67
2023/08/12 07:02:12;;;;;;;3.78;3.47;;;;;;;21.65;95.09;101497.06;6141054;28;20254;-67
2023/08/12 07:05:33;;;;;;;4.53;4.05;;;;;;;21.60;94.92;101487.69;6134955;28;20716;-67
2023/08/12 07:08:55;;;;;;;5.68;5.15;;;;;;;21.63;95.30;101477.19;6116671;28;20315;-68
2023/08/12 07:12:16;;;;;;;5.90;4.15;;;;;;;21.73;95.56;101496.94;6145694;28;20669;-68
2023/08/12 07:15:37;;;;;;;5.38;3.85;;;;;;;21.68;95.37;101493.91;6132201;28;20243;-68
2023/08/12 07:19:01;;;;;;;5.03;4.40;;;;;;;21.74;95.88;101487.66;6127669;28;20310;-68
2023/08/12 07:22:22;;;;;;;4.93;3.88;;;;;;;21.84;96.06;101479.16;6133650;28;20310;-68
2023/08/12 07:25:43;;;;;;;5.13;4.63;;;;;;;22.04;95.76;101469.22;6138867;28;20340;-67
2023/08/12 07:29:03;;;;;;;5.40;5.00;;;;;;;22.08;95.72;101471.38;6122962;28;20227;-67
2023/08/12 07:32:24;;;;;;;6.82;5.32;;;;;;;22.09;95.74;101469.47;6132063;28;20323;-67
2023/08/12 07:35:49;;;;;;;6.72;6.00;;;;;;;22.15;95.77;101469.53;6137363;28;20239;-67
2023/08/12 07:39:10;;;;;;;5.88;5.28;;;;;;;22.29;95.59;101467.75;6123947;28;20280;-66
2023/08/12 07:42:31;;;;;;;5.05;4.38;;;;;;;22.34;95.22;101472.66;6134246;28;20250;-68
2023/08/12 07:45:53;;;;;;;5.45;4.97;;;;;;;22.45;94.95;101477.59;6120037;28;20260;-67
2023/08/12 07:49:14;;;;;;;7.40;6.20;;;;;;;22.50;94.71;101472.38;6124074;28;20675;-68
2023/08/12 07:52:36;;;;;;;6.05;5.55;;;;;;;22.55;94.55;101476.22;6134728;28;20597;-67
2023/08/12 07:55:57;;;;;;;7.38;4.55;;;;;;;22.47;94.78;101470.88;6136772;28;20239;-68
2023/08/12 07:59:18;;;;;;;6.65;5.28;;;;;;;22.53;94.12;101463.75;6116321;28;20232;-67
2023/08/12 08:02:39;;;;;;;5.80;5.15;;;;;;;22.60;93.78;101467.41;6123549;28;20231;-67
2023/08/12 08:06:00;;;;;;;5.32;4.78;;;;;;;22.63;93.33;101469.75;6137524;28;20346;-66
2023/08/12 08:09:22;;;;;;;5.97;5.45;;;;;;;22.72;93.21;101487.78;6117834;28;20227;-66
2023/08/12 08:12:43;;;;;;;11.18;6.60;;;;;;;22.57;92.78;101467.78;6139659;28;20236;-67
2023/08/12 08:16:06;;;;;;;7.43;6.75;;;;;;;22.74;92.71;101461.81;6129417;28;20782;-65
2023/08/12 08:19:26;;;;;;;10.35;6.30;;;;;;;22.94;92.86;101464.69;6128145;28;20234;-68
2023/08/12 08:22:47;;;;;;;7.30;4.65;;;;;;;23.37;92.59;101471.72;6127148;28;20243;-67
2023/08/12 08:26:10;;;;;;;6.20;5.60;;;;;;;23.47;91.24;101476.81;6134465;28;21700;-67
2023/08/12 08:29:31;;;;;;;8.55;6.70;;;;;;;23.08;91.92;101471.97;6127802;28;20227;-67
2023/08/12 08:32:52;;;;;;;6.82;6.13;;;;;;;23.16;92.90;101468.19;6135356;28;20231;-67
2023/08/12 08:36:13;;;;;;;7.28;6.65;;;;;;;23.45;92.50;101471.53;6122227;28;20251;-67
2023/08/12 08:39:33;;;;;;;6.15;5.55;;;;;;;23.44;91.42;101472.59;6119097;28;20235;-67
2023/08/12 08:43:03;;;;;;;4.70;4.30;;;;;;;23.73;90.41;101466.78;6134491;28;20231;-68
2023/08/12 08:46:24;;;;;;;5.95;5.35;;;;;;;23.91;89.72;101468.94;6127869;28;20854;-67
2023/08/12 08:49:45;;;;;;;6.13;5.53;;;;;;;23.88;89.49;101474.00;6130465;28;20275;-67
2023/08/12 08:53:07;;;;;;;7.18;6.13;;;;;;;23.89;88.80;101461.91;6131556;28;20230;-68
2023/08/12 08:56:29;;;;;;;6.60;5.53;;;;;;;23.99;88.82;101460.47;6133228;28;20239;-68
2023/08/12 08:59:51;;;;;;;8.35;5.53;;;;;;;24.05;88.05;101467.94;6131096;28;20230;-67
2023/08/12 09:03:13;;;;;;;7.07;6.25;;;;;;;23.79;88.44;101468.69;6133027;28;20235;-68
2023/08/12 09:06:37;;;;;;;8.65;6.10;;;;;;;23.90;89.61;101466.38;6122306;28;20236;-68
2023/08/12 09:09:59;;;;;;;7.13;5.75;;;;;;;23.93;89.67;101464.06;6121041;28;21751;-67
2023/08/12 09:13:21;;;;;;;6.28;5.50;;;;;;;23.61;90.45;101456.56;6130618;28;20228;-67
2023/08/12 09:16:43;;;;;;;8.25;7.25;;;;;;;23.43;91.90;101461.78;6119563;28;20326;-68
2023/08/12 09:20:11;;;;;;;7.07;5.75;;;;;;;23.52;92.15;101447.66;6128251;28;20305;-67
2023/08/12 09:23:35;;;;;;;6.32;5.70;;;;;;;23.23;92.58;101456.19;6131226;28;20232;-67
2023/08/12 09:26:56;;;;;;;6.88;6.18;;;;;;;22.99;94.58;101457.53;6132371;28;20243;-68
2023/08/12 09:30:17;;;;;;;5.78;5.25;;;;;;;23.31;94.51;101452.38;6123415;28;20363;-68
2023/08/12 09:33:41;;;;;;;7.13;6.32;;;;;;;23.01;93.71;101451.81;6128605;28;20269;-68
2023/08/12 09:37:01;;;;;;;7.35;5.88;;;;;;;22.97;94.19;101451.38;6125508;28;20231;-67
2023/08/12 09:40:23;;;;;;;5.97;5.40;;;;;;;22.88;93.88;101460.00;6123905;28;20622;-68
2023/08/12 09:43:44;;;;;;;6.00;5.03;;;;;;;22.83;93.67;101448.75;6132194;28;20231;-68
2023/08/12 09:47:06;;;;;;;6.10;5.50;;;;;;;22.65;94.02;101451.16;6127909;28;20232;-67
2023/08/12 09:50:29;;;;;;;5.80;5.20;;;;;;;22.39;95.30;101461.91;6122719;28;20239;-67
2023/08/12 09:53:50;;;;;;;7.60;6.50;;;;;;;22.43;96.84;101461.31;6115296;28;20224;-68
2023/08/12 09:57:15;;;;;;;8.48;7.25;;;;;;;22.57;96.56;101443.06;6143068;28;20251;-68
2023/08/12 10:00:36;;;;;;;7.10;6.32;;;;;;;22.90;95.97;101453.25;6123393;28;20223;-68
2023/08/12 10:03:57;;;;;;;8.25;7.43;;;;;;;23.50;94.47;101438.75;6117284;28;20266;-67
2023/08/12 10:07:23;;;;;;;8.63;7.72;;;;;;;23.50;92.28;101444.25;6134318;28;20332;-68
2023/08/12 10:10:44;;;;;;;8.18;7.32;;;;;;;23.76;91.84;101438.81;6130867;28;20230;-68
2023/08/12 10:14:05;;;;;;;20.10;8.23;;;;;;;24.06;90.64;101438.47;6119800;28;20232;-67
2023/08/12 10:17:27;;;;;;;6.05;5.55;;;;;;;23.98;89.40;101433.13;6127362;28;20224;-68
2023/08/12 10:20:49;;;;;;;5.95;5.45;;;;;;;24.14;88.14;101430.00;6139030;28;20227;-67
2023/08/12 10:24:11;;;;;;;6.85;6.10;;;;;;;23.77;86.73;101431.41;6125561;28;20247;-67
2023/08/12 10:27:32;;;;;;;8.40;5.65;;;;;;;23.95;86.72;101425.31;6141040;28;20224;-68
2023/08/12 10:30:53;;;;;;;6.25;5.00;;;;;;;24.10;84.77;101429.56;6123572;28;20232;-68
2023/08/12 10:34:21;;;;;;;5.00;4.03;;;;;;;24.05;83.19;101428.53;6120250;28;20231;-67
2023/08/12 10:37:42;;;;;;;4.97;3.92;;;;;;;24.00;83.63;101420.00;6132442;28;20242;-68
2023/08/12 10:41:22;;;;;;;3.95;3.65;;;;;;;23.78;84.56;101425.66;6126554;28;20341;-68
2023/08/12 10:44:51;;;;;;;4.15;3.53;;;;;;;23.82;83.77;101426.13;6129780;28;20250;-67
2023/08/12 10:48:19;;;;;;;5.50;5.00;;;;;;;23.35;85.06;101423.44;6134054;28;20593;-67
2023/08/12 10:51:41;;;;;;;9.43;3.70;;;;;;;24.06;84.86;101408.16;6139542;28;20243;-67
2023/08/12 10:55:17;;;;;;;4.60;4.20;;;;;;;24.44;84.06;101401.81;6125128;28;20330;-68
2023/08/12 10:58:47;;;;;;;5.00;4.28;;;;;;;24.76;82.23;101394.56;6130711;28;20278;-67
2023/08/12 11:02:09;;;;;;;5.05;4.13;;;;;;;24.07;80.35;101391.44;6137555;28;20321;-68
2023/08/12 11:05:37;;;;;;;6.70;4.07;;;;;;;24.67;80.05;101376.50;6135974;28;20601;-68
2023/08/12 11:08:59;;;;;;;3.78;3.38;;;;;;;25.78;77.09;101375.19;6114667;28;20231;-67
2023/08/12 11:12:30;;;;;;;5.30;4.00;;;;;;;26.11;75.11;101384.13;6142048;28;20243;-67
2023/08/12 11:15:52;;;;;;;3.47;3.17;;;;;;;25.43;75.90;101387.75;6136369;28;20234;-67
2023/08/12 11:19:14;;;;;;;4.35;3.03;;;;;;;25.35;75.72;101386.03;6124025;28;20609;-67
2023/08/12 11:22:38;;;;;;;5.57;3.08;;;;;;;24.68;76.91;101382.88;6126639;28;20227;-68
2023/08/12 11:25:58;;;;;;;4.65;3.13;;;;;;;24.54;78.76;101382.91;6134809;28;20321;-68
2023/08/12 11:29:20;;;;;;;3.47;3.20;;;;;;;24.28;80.37;101382.09;6120339;28;20325;-68
2023/08/12 11:32:43;;;;;;;3.78;3.33;;;;;;;23.97;81.87;101387.38;6131180;28;20232;-68
2023/08/12 11:36:04;;;;;;;4.07;3.38;;;;;;;23.43;84.29;101379.19;6127216;28;20238;-67
2023/08/12 11:39:25;;;;;;;2.47;2.28;;;;;;;23.70;84.70;101380.97;6121564;28;20238;-67
2023/08/12 11:42:48;;;;;;;9.23;3.75;;;;;;;23.68;85.05;101372.06;6135851;28;20227;-68
2023/08/12 11:46:09;;;;;;;3.92;3.33;;;;;;;23.60;84.64;101381.38;6119076;28;20262;-68
2023/08/12 11:49:31;;;;;;;4.85;3.45;;;;;;;23.18;85.50;101372.53;6136514;28;20238;-67
2023/08/12 11:52:53;;;;;;;3.78;3.17;;;;;;;23.23;86.51;101376.38;6141811;28;20231;-67
2023/08/12 11:56:14;;;;;;;3.92;3.63;;;;;;;22.44;88.95;101369.59;6140464;28;20243;-68
2023/08/12 11:59:35;;;;;;;2.55;2.35;;;;;;;22.49;90.64;101371.75;6131934;28;20238;-68
2023/08/12 12:02:57;;;;;;;3.33;2.92;;;;;;;22.31;91.97;101368.63;6136395;28;20622;-67
2023/08/12 12:06:29;;;;;;;3.92;3.35;;;;;;;22.37;92.94;101363.19;6120256;28;20228;-67
2023/08/12 12:09:52;;;;;;;3.20;2.90;;;;;;;22.77;92.58;101354.19;6127689;28;20230;-68
2023/08/12 12:13:19;;;;;;;3.47;3.17;;;;;;;23.05;91.98;101348.59;6067333;28;20235;-69
2023/08/12 12:16:42;;;;;;;4.03;3.30;;;;;;;23.33;91.81;101343.84;6100528;28;20549;-68
2023/08/12 12:20:05;;;;;;;4.53;3.30;;;;;;;23.44;91.04;101337.72;6129502;28;20223;-67
2023/08/12 12:23:31;;;;;;;3.67;3.38;;;;;;;23.53;91.66;101321.88;6132989;28;20240;-68
2023/08/12 12:26:52;;;;;;;3.35;3.03;;;;;;;23.77;91.87;101296.47;6126035;28;20231;-67
2023/08/12 12:30:15;;;;;;;4.70;2.92;;;;;;;23.96;91.92;101276.31;6121659;28;20238;-67
2023/08/12 12:33:36;;;;;;;4.57;3.75;;;;;;;24.14;91.53;101272.91;6130224;28;20593;-67
2023/08/12 12:36:56;;;;;;;3.85;3.55;;;;;;;24.47;91.10;101293.84;6136425;28;20247;-67
2023/08/12 12:40:19;;;;;;;3.22;2.92;;;;;;;24.68;89.82;101294.63;6117672;28;20234;-68
2023/08/12 12:43:39;;;;;;;4.82;3.97;;;;;;;24.93;88.39;101287.34;6129772;28;20238;-66
2023/08/12 12:47:00;;;;;;;3.75;3.45;;;;;;;25.06;86.49;101290.88;6132858;28;20231;-68
2023/08/12 12:50:21;;;;;;;4.63;4.18;;;;;;;24.67;87.07;101296.53;6130197;28;20235;-68
2023/08/12 12:53:42;;;;;;;4.63;3.70;;;;;;;24.22;87.90;101301.09;6129199;28;20319;-67
2023/08/12 12:57:04;;;;;;;3.85;3.55;;;;;;;23.97;88.66;101299.22;6125368;28;20327;-68
2023/08/12 13:00:25;;;;;;;4.88;4.47;;;;;;;23.88;89.38;101294.97;6125570;28;20227;-67
2023/08/12 13:03:46;;;;;;;5.00;4.68;;;;;;;23.86;90.22;101289.69;6125496;28;20277;-67
2023/08/12 13:07:10;;;;;;;5.05;4.65;;;;;;;23.77;91.54;101289.06;6119916;28;20239;-67
2023/08/12 13:10:31;;;;;;;5.55;4.10;;;;;;;23.77;92.56;101283.53;6136918;28;20246;-67
2023/08/12 13:13:54;;;;;;;4.90;4.30;;;;;;;23.75;93.31;101288.41;6126586;28;20231;-66
2023/08/12 13:17:14;;;;;;;4.68;4.28;;;;;;;23.50;93.30;101292.00;6126414;28;20231;-69
2023/08/12 13:20:35;;;;;;;5.40;4.90;;;;;;;23.50;93.42;101290.09;6133275;28;20222;-66
2023/08/12 13:23:56;;;;;;;5.03;4.53;;;;;;;23.52;93.59;101296.25;6121285;28;20231;-68
2023/08/12 13:27:18;;;;;;;3.97;3.67;;;;;;;23.52;93.99;101292.63;6129544;28;20227;-67
2023/08/12 13:30:40;;;;;;;6.38;5.25;;;;;;;23.54;94.23;101287.75;6125394;28;20259;-68
2023/08/12 13:34:04;;;;;;;6.03;5.53;;;;;;;23.82;94.55;101288.41;6122964;28;20231;-67
2023/08/12 13:37:25;;;;;;;6.60;6.00;;;;;;;23.54;93.79;101294.13;6142925;28;20227;-67
2023/08/12 13:40:45;;;;;;;5.53;4.55;;;;;;;23.25;93.76;101279.84;6126915;28;20239;-67
2023/08/12 13:44:06;;;;;;;5.00;4.60;;;;;;;23.51;94.31;101268.94;6123561;28;20230;-68
2023/08/12 13:47:28;;;;;;;6.10;5.50;;;;;;;23.24;94.34;101286.44;6127399;28;20728;-68
2023/08/12 13:50:52;;;;;;;7.20;6.50;;;;;;;23.23;95.00;101287.47;6136958;28;20243;-68
2023/08/12 13:54:12;;;;;;;9.02;7.30;;;;;;;22.83;95.21;101292.84;6121747;28;20497;-67
2023/08/12 13:57:33;;;;;;;7.43;5.20;;;;;;;22.83;96.33;101284.59;6146803;28;20235;-68
2023/08/12 14:00:54;;;;;;;5.53;5.07;;;;;;;23.12;95.85;101282.56;6117269;28;20597;-68
2023/08/12 14:04:16;;;;;;;5.38;4.88;;;;;;;23.33;96.11;101283.28;6122118;28;20235;-67
2023/08/12 14:07:37;;;;;;;9.65;4.80;;;;;;;23.32;96.32;101278.81;6123662;28;20220;-67
2023/08/12 14:10:58;;;;;;;4.78;4.38;;;;;;;23.89;95.66;101269.09;6139257;28;20321;-68
2023/08/12 14:14:19;;;;;;;5.90;3.70;;;;;;;23.68;94.72;101272.94;6116491;28;20250;-67
2023/08/12 14:17:40;;;;;;;4.65;4.25;;;;;;;23.62;93.26;101258.13;6129597;28;20342;-68
2023/08/12 14:21:02;;;;;;;4.05;3.65;;;;;;;23.47;93.74;101259.38;6124654;28;20231;-68
2023/08/12 14:24:24;;;;;;;3.92;3.60;;;;;;;23.60;93.92;101257.47;6115092;28;20251;-68
2023/08/12 14:27:45;;;;;;;4.80;4.13;;;;;;;23.60;93.91;101257.47;6137097;28;20618;-68
2023/08/12 14:31:05;;;;;;;4.65;4.13;;;;;;;23.65;93.85;101245.84;6141433;28;20246;-67
2023/08/12 14:34:26;;;;;;;3.47;3.17;;;;;;;23.55;93.47;101243.50;6126268;28;20234;-69
2023/08/12 14:37:49;;;;;;;4.22;3.90;;;;;;;23.43;93.93;101236.94;6137874;28;20247;-68
2023/08/12 14:41:09;;;;;;;4.55;4.07;;;;;;;23.43;94.51;101223.16;6143493;28;20235;-67
2023/08/12 14:44:31;;;;;;;3.90;3.60;;;;;;;23.33;94.73;101230.16;6121643;28;20243;-67
2023/08/12 14:47:52;;;;;;;5.90;5.30;;;;;;;23.23;95.31;101218.69;6127816;28;20622;-67
2023/08/12 14:51:14;;;;;;;4.65;4.30;;;;;;;23.18;95.91;101219.31;6124090;28;20238;-67
2023/08/12 14:54:37;;;;;;;5.28;4.78;;;;;;;23.25;96.38;101220.16;6124356;28;20235;-68
2023/08/12 14:57:58;;;;;;;6.10;5.55;;;;;;;23.38;96.74;101222.97;6138477;28;20558;-67
2023/08/12 15:01:19;;;;;;;5.57;5.07;;;;;;;23.45;96.46;101217.44;6139410;28;20645;-68
2023/08/12 15:04:40;;;;;;;6.50;5.60;;;;;;;23.53;96.36;101212.56;6120882;28;20647;-68
2023/08/12 15:08:01;;;;;;;6.80;5.50;;;;;;;23.53;96.76;101211.75;6126750;28;20590;-66
2023/08/12 15:11:25;;;;;;;6.70;6.10;;;;;;;23.43;96.72;101214.91;6137017;28;20227;-67
2023/08/12 15:14:45;;;;;;;6.15;5.43;;;;;;;23.76;96.86;101201.16;6122307;28;20230;-68
2023/08/12 15:18:06;;;;;;;6.68;6.03;;;;;;;24.48;95.00;101193.53;6135711;28;20234;-67
2023/08/12 15:21:27;;;;;;;8.50;7.70;;;;;;;24.59;92.90;101194.75;6142360;28;20499;-67
2023/08/12 15:24:48;;;;;;;7.68;6.82;;;;;;;24.09;93.47;101201.09;6128926;28;20235;-68
2023/08/12 15:28:10;;;;;;;9.18;8.30;;;;;;;23.71;94.57;101195.41;6136828;28;20223;-68
2023/08/12 15:31:31;;;;;;;7.97;7.28;;;;;;;23.73;97.33;101194.16;6122590;28;20641;-68
2023/08/12 15:34:52;;;;;;;6.60;5.95;;;;;;;24.05;97.04;101200.69;6132258;28;20596;-68
2023/08/12 15:38:13;;;;;;;8.57;7.55;;;;;;;24.39;96.34;101196.72;6132868;28;20561;-68